Time;durP1;ratioP1;P1;durP2;ratioP2;P2;SDS_P1;SDS_P2;PMS_P1;PMS_P2;Temp;Humidity;BMP_temperature;BMP_pressure;BME280_temperature;BME280_humidity;BME280_pressure;Samples;Min_cycle;Max_cycle;Signal;HPM_P1;HPM_P2
2022/04/22 08:50:29;;;;;;;;;10.25;9.00;;;;;15.35;42.66;97735.34;4843344;29;102222;-96
2022/04/22 08:53:04;;;;;;;;;13.50;9.50;;;;;15.33;42.92;97732.03;4813918;29;102143;-96
2022/04/22 08:55:33;;;;;;;;;10.25;10.00;;;;;15.33;42.63;97732.84;4844244;29;105422;-96
2022/04/22 08:58:03;;;;;;;;;9.00;9.00;;;;;15.33;42.62;97727.41;4829120;29;102250;-96
2022/04/22 09:00:30;;;;;;;;;12.25;12.00;;;;;15.36;42.69;97731.50;4830702;29;102588;-96
2022/04/22 09:02:58;;;;;;;;;11.50;9.75;;;;;15.33;42.81;97734.75;4832767;29;102346;-96
2022/04/22 09:05:26;;;;;;;;;8.75;8.75;;;;;15.35;42.36;97740.78;4843539;29;102602;-96
2022/04/22 09:07:54;;;;;;;;;9.50;9.00;;;;;15.40;42.28;97735.41;4824188;29;102358;-96
2022/04/22 09:10:22;;;;;;;;;11.25;10.00;;;;;15.37;42.48;97722.28;4824990;29;102542;-96
2022/04/22 09:12:55;;;;;;;;;12.75;10.50;;;;;15.40;42.61;97724.50;4826149;29;102849;-96
2022/04/22 09:15:25;;;;;;;;;11.00;9.25;;;;;15.41;42.05;97723.41;4841613;29;103943;-96
2022/04/22 09:18:00;;;;;;;;;11.50;8.50;;;;;15.37;42.62;97719.53;4839525;29;102062;-96
2022/04/22 09:20:31;;;;;;;;;12.00;9.50;;;;;15.38;42.20;97718.47;4838800;29;102244;-96
2022/04/22 09:22:58;;;;;;;;;10.00;9.00;;;;;15.40;42.52;97721.78;4835528;29;102419;-96
2022/04/22 09:25:28;;;;;;;;;10.00;9.00;;;;;15.42;42.68;97727.78;4837731;29;103405;-96
2022/04/22 09:28:07;;;;;;;;;8.25;8.00;;;;;15.41;42.51;97724.25;4806029;29;102468;-96
2022/04/22 09:30:35;;;;;;;;;11.25;8.25;;;;;15.42;42.47;97706.81;4821573;29;102282;-96
2022/04/22 09:33:03;;;;;;;;;11.50;8.00;;;;;15.43;42.74;97710.38;4825265;29;102081;-96
2022/04/22 09:42:38;;;;;;;;;11.50;8.50;;;;;15.44;42.53;97709.31;4840471;29;104210;-96
2022/04/22 09:44:23;;;;;;;;;9.25;8.50;;;;;15.47;42.88;97722.41;4842646;29;102604;-96
2022/04/22 09:47:11;;;;;;;;;9.50;7.75;;;;;15.48;42.34;97713.16;4838372;29;103467;-96
2022/04/22 09:49:44;;;;;;;;;10.50;10.00;;;;;15.46;42.48;97715.31;4824963;29;102140;-96
2022/04/22 09:52:13;;;;;;;;;10.25;9.75;;;;;15.48;42.28;97724.06;4829718;29;102615;-96
2022/04/22 09:54:42;;;;;;;;;9.00;9.00;;;;;15.51;42.62;97723.56;4822623;29;102491;-96
2022/04/22 09:57:53;;;;;;;;;10.00;9.00;;;;;15.52;42.33;97730.69;4826856;29;104429;-96
2022/04/22 10:00:27;;;;;;;;;12.00;9.75;;;;;15.51;42.26;97734.47;4834094;29;102489;-96
2022/04/22 10:03:11;;;;;;;;;10.50;8.50;;;;;15.49;42.82;97731.97;4831668;29;101848;-96
2022/04/22 10:05:39;;;;;;;;;9.50;9.00;;;;;15.48;42.20;97729.50;4811725;29;102215;-96
2022/04/22 10:08:07;;;;;;;;;10.50;8.50;;;;;15.52;42.47;97736.97;4823145;29;102888;-96
2022/04/22 10:10:52;;;;;;;;;7.00;6.25;;;;;15.54;42.52;97736.69;4822229;29;101838;-96
2022/04/22 10:13:25;;;;;;;;;9.25;9.00;;;;;15.56;42.71;97740.81;4836833;29;101871;-96
2022/04/22 10:15:53;;;;;;;;;9.00;8.50;;;;;15.55;42.50;97741.06;4833436;29;102050;-96
2022/04/22 10:18:22;;;;;;;;;10.50;9.25;;;;;15.56;42.79;97738.09;4834227;29;104565;-96
2022/04/22 10:20:50;;;;;;;;;11.25;10.50;;;;;15.57;42.58;97764.28;4847462;29;102331;-96
2022/04/22 10:23:17;;;;;;;;;10.50;8.00;;;;;15.57;43.07;97752.53;4832611;29;102775;-96
2022/04/22 10:25:48;;;;;;;;;12.00;9.50;;;;;15.58;42.29;97754.16;4846701;29;102190;-96
2022/04/22 10:28:16;;;;;;;;;9.25;9.00;;;;;15.61;42.60;97759.13;4818289;29;103143;-96
2022/04/22 10:30:44;;;;;;;;;8.50;7.50;;;;;15.59;42.80;97747.66;4829712;29;102070;-96
2022/04/22 10:33:12;;;;;;;;;8.25;7.25;;;;;15.61;42.82;97761.84;4849480;29;102039;-96
2022/04/22 10:35:42;;;;;;;;;7.50;6.75;;;;;15.61;42.40;97750.97;4833636;29;102300;-96
2022/04/22 10:38:34;;;;;;;;;8.00;8.00;;;;;15.65;42.50;97763.00;4840116;29;102055;-96
2022/04/22 10:41:03;;;;;;;;;9.00;7.00;;;;;15.60;42.75;97754.75;4846995;29;102385;-96
2022/04/22 10:43:31;;;;;;;;;8.00;7.00;;;;;15.62;42.54;97758.06;4832802;29;102039;-96
2022/04/22 10:49:09;;;;;;;;;10.00;8.00;;;;;15.63;42.50;97755.06;4834639;29;102494;-96
2022/04/22 10:52:09;;;;;;;;;9.00;8.00;;;;;15.66;42.72;97759.19;4832812;29;101913;-96
2022/04/22 10:54:53;;;;;;;;;9.25;8.75;;;;;15.66;42.55;97759.19;4848820;29;101966;-96
2022/04/22 10:57:29;;;;;;;;;9.00;9.00;;;;;15.63;42.72;97759.69;4834020;29;102467;-96
2022/04/22 11:00:09;;;;;;;;;11.00;7.25;;;;;15.67;42.55;97766.28;4823906;29;102713;-96
2022/04/22 11:02:40;;;;;;;;;8.50;8.00;;;;;15.62;42.55;97767.03;4820579;29;102338;-96
2022/04/22 11:05:19;;;;;;;;;11.25;9.75;;;;;15.67;42.50;97758.09;4837763;29;102068;-96
2022/04/22 11:08:01;;;;;;;;;8.75;7.00;;;;;15.67;42.45;97763.53;4824182;29;102230;-96
2022/04/22 11:10:47;;;;;;;;;8.25;7.00;;;;;15.68;42.57;97754.31;4839937;29;102152;-96
2022/04/22 11:14:20;;;;;;;;;10.00;9.00;;;;;15.68;42.52;97748.84;4842048;29;102095;-96
2022/04/22 11:16:50;;;;;;;;;7.25;7.00;;;;;15.65;42.45;97745.81;4767159;29;102181;-96
2022/04/22 11:19:18;;;;;;;;;8.00;8.00;;;;;15.68;42.61;97748.03;4805690;29;103597;-96
2022/04/22 11:22:01;;;;;;;;;7.25;6.00;;;;;15.65;42.74;97740.38;4825470;29;105176;-96
2022/04/22 11:24:31;;;;;;;;;7.75;7.00;;;;;15.65;42.57;97722.13;4813315;29;102188;-96
2022/04/22 11:27:08;;;;;;;;;8.50;7.75;;;;;15.67;42.71;97724.59;4825643;29;102584;-96
2022/04/22 11:29:40;;;;;;;;;9.25;6.50;;;;;15.66;42.14;97722.94;4840168;29;102185;-96
2022/04/22 11:32:21;;;;;;;;;8.00;5.25;;;;;15.70;42.76;97724.91;4822058;29;103423;-96
2022/04/22 11:35:01;;;;;;;;;7.00;7.00;;;;;15.73;42.67;97731.72;4823680;29;102596;-96
2022/04/22 11:37:30;;;;;;;;;10.50;8.00;;;;;15.71;42.66;97725.72;4835878;29;102162;-96
2022/04/22 11:40:02;;;;;;;;;9.75;8.50;;;;;15.68;42.70;97713.41;4810223;29;102209;-96
2022/04/22 11:42:44;;;;;;;;;8.25;7.25;;;;;15.70;42.69;97719.44;4824843;29;103400;-96
2022/04/22 11:45:16;;;;;;;;;7.75;7.00;;;;;15.73;42.42;97713.47;4825051;29;102379;-96
2022/04/22 11:47:46;;;;;;;;;6.50;6.50;;;;;15.72;42.94;97708.28;4825163;29;102398;-96
2022/04/22 11:50:19;;;;;;;;;7.25;6.00;;;;;15.71;42.48;97702.03;4826260;29;102088;-96
2022/04/22 11:52:52;;;;;;;;;8.00;7.00;;;;;15.72;42.29;97708.28;4790996;29;103485;-96
2022/04/22 11:55:22;;;;;;;;;8.75;7.75;;;;;15.72;42.38;97695.47;4823715;29;102468;-96
2022/04/22 11:57:50;;;;;;;;;7.50;7.00;;;;;15.74;42.27;97708.84;4823064;29;102203;-96
2022/04/22 12:05:57;;;;;;;;;7.50;7.50;;;;;15.73;42.62;97694.41;4839490;29;101975;-96
2022/04/22 12:08:25;;;;;;;;;7.50;6.50;;;;;15.75;42.71;97686.81;4816927;29;102281;-96
2022/04/22 12:10:59;;;;;;;;;7.50;6.75;;;;;15.77;42.41;97698.25;4824972;29;102080;-96
2022/04/22 12:14:13;;;;;;;;;9.50;8.50;;;;;15.79;42.56;97696.13;4825016;29;103958;-96
2022/04/22 12:16:50;;;;;;;;;7.75;7.50;;;;;15.77;42.53;97690.09;4836641;29;102588;-96
2022/04/22 12:19:21;;;;;;;;;5.50;5.25;;;;;15.76;42.69;97682.97;4807828;29;102157;-96
2022/04/22 12:21:55;;;;;;;;;6.00;5.00;;;;;15.78;42.67;97680.84;4839920;29;102637;-96
2022/04/22 12:24:29;;;;;;;;;7.75;6.75;;;;;15.82;42.59;97681.97;4823065;29;105420;-96
2022/04/22 12:26:57;;;;;;;;;7.50;6.00;;;;;15.78;42.61;97680.00;4822292;29;101718;-96
2022/04/22 12:30:15;;;;;;;;;7.50;6.25;;;;;15.83;42.59;97682.78;4809607;29;101966;-96
2022/04/22 12:32:52;;;;;;;;;8.00;7.00;;;;;15.80;42.56;97675.97;4821221;29;102488;-96
2022/04/22 12:35:28;;;;;;;;;8.25;8.25;;;;;15.82;42.91;97671.06;4824755;29;104878;-96
2022/04/22 12:38:06;;;;;;;;;3.25;3.25;;;;;15.81;42.86;97674.03;4827272;29;102065;-96
2022/04/22 12:40:49;;;;;;;;;7.75;7.00;;;;;15.85;42.37;97675.19;4828041;29;101967;-96
2022/04/22 12:43:23;;;;;;;;;8.75;8.00;;;;;15.87;43.71;97676.56;4830921;29;102689;-96
2022/04/22 12:54:17;;;;;;;;;9.00;6.50;;;;;15.84;43.99;97668.91;4845022;29;101314;-96
2022/04/22 12:57:53;;;;;;;;;8.75;6.75;;;;;15.87;43.58;97671.13;4806606;29;102547;-96
2022/04/22 13:04:31;;;;;;;;;7.00;5.75;;;;;15.84;43.57;97652.56;4790755;29;102213;-96
